sensor_id;sensor_type;location;lat;lon;timestamp;temperature;humidity
68981;SHT35;56033;51.880;12.632;2022-10-14T00:00:11;17.73;55.54
68981;SHT35;56033;51.880;12.632;2022-10-14T00:02:36;17.73;55.55
68981;SHT35;56033;51.880;12.632;2022-10-14T00:05:02;17.73;55.62
68981;SHT35;56033;51.880;12.632;2022-10-14T00:07:27;17.72;55.64
68981;SHT35;56033;51.880;12.632;2022-10-14T00:09:53;17.72;55.78
68981;SHT35;56033;51.880;12.632;2022-10-14T00:12:18;17.66;55.81
68981;SHT35;56033;51.880;12.632;2022-10-14T00:14:43;17.69;55.78
68981;SHT35;56033;51.880;12.632;2022-10-14T00:17:09;17.67;55.79
68981;SHT35;56033;51.880;12.632;2022-10-14T00:19:34;17.66;55.81
68981;SHT35;56033;51.880;12.632;2022-10-14T00:22:00;17.65;55.91
68981;SHT35;56033;51.880;12.632;2022-10-14T00:24:25;17.66;55.84
68981;SHT35;56033;51.880;12.632;2022-10-14T00:26:50;17.65;55.92
68981;SHT35;56033;51.880;12.632;2022-10-14T00:29:17;17.63;55.84
68981;SHT35;56033;51.880;12.632;2022-10-14T00:31:43;17.62;55.87
68981;SHT35;56033;51.880;12.632;2022-10-14T00:34:08;17.62;55.83
68981;SHT35;56033;51.880;12.632;2022-10-14T00:36:38;17.61;55.89
68981;SHT35;56033;51.880;12.632;2022-10-14T00:39:04;17.61;55.85
68981;SHT35;56033;51.880;12.632;2022-10-14T00:41:31;17.57;55.96
68981;SHT35;56033;51.880;12.632;2022-10-14T00:46:42;17.57;55.88
68981;SHT35;56033;51.880;12.632;2022-10-14T00:49:28;17.57;55.89
68981;SHT35;56033;51.880;12.632;2022-10-14T00:51:57;17.55;55.98
68981;SHT35;56033;51.880;12.632;2022-10-14T00:54:29;17.52;55.96
68981;SHT35;56033;51.880;12.632;2022-10-14T00:56:55;17.52;56.00
68981;SHT35;56033;51.880;12.632;2022-10-14T00:59:21;17.50;55.97
68981;SHT35;56033;51.880;12.632;2022-10-14T01:01:46;17.52;55.98
68981;SHT35;56033;51.880;12.632;2022-10-14T01:04:12;17.52;56.00
68981;SHT35;56033;51.880;12.632;2022-10-14T01:20:44;17.46;55.97
68981;SHT35;56033;51.880;12.632;2022-10-14T01:25:54;17.45;56.00
68981;SHT35;56033;51.880;12.632;2022-10-14T01:28:44;17.42;56.09
68981;SHT35;56033;51.880;12.632;2022-10-14T01:31:23;17.43;56.01
68981;SHT35;56033;51.880;12.632;2022-10-14T01:33:55;17.42;56.04
68981;SHT35;56033;51.880;12.632;2022-10-14T01:36:23;17.39;56.11
68981;SHT35;56033;51.880;12.632;2022-10-14T01:39:09;17.39;56.10
68981;SHT35;56033;51.880;12.632;2022-10-14T01:41:42;17.36;56.22
68981;SHT35;56033;51.880;12.632;2022-10-14T01:44:10;17.39;56.12
68981;SHT35;56033;51.880;12.632;2022-10-14T01:46:38;17.38;56.16
68981;SHT35;56033;51.880;12.632;2022-10-14T01:49:11;17.35;56.15
68981;SHT35;56033;51.880;12.632;2022-10-14T01:51:58;17.35;56.23
68981;SHT35;56033;51.880;12.632;2022-10-14T01:54:32;17.36;56.17
68981;SHT35;56033;51.880;12.632;2022-10-14T01:57:01;17.34;56.12
68981;SHT35;56033;51.880;12.632;2022-10-14T01:59:28;17.32;56.18
68981;SHT35;56033;51.880;12.632;2022-10-14T02:01:54;17.34;56.20
68981;SHT35;56033;51.880;12.632;2022-10-14T02:04:21;17.32;56.16
68981;SHT35;56033;51.880;12.632;2022-10-14T02:17:32;17.28;56.05
68981;SHT35;56033;51.880;12.632;2022-10-14T02:20:14;17.29;56.09
68981;SHT35;56033;51.880;12.632;2022-10-14T02:22:47;17.32;56.08
68981;SHT35;56033;51.880;12.632;2022-10-14T02:25:23;17.27;56.01
68981;SHT35;56033;51.880;12.632;2022-10-14T02:27:51;17.24;56.04
68981;SHT35;56033;51.880;12.632;2022-10-14T02:30:19;17.24;56.18
68981;SHT35;56033;51.880;12.632;2022-10-14T02:32:45;17.27;56.13
68981;SHT35;56033;51.880;12.632;2022-10-14T02:35:14;17.25;56.27
68981;SHT35;56033;51.880;12.632;2022-10-14T02:37:43;17.25;56.22
68981;SHT35;56033;51.880;12.632;2022-10-14T02:40:10;17.22;56.26
68981;SHT35;56033;51.880;12.632;2022-10-14T02:42:37;17.22;56.28
68981;SHT35;56033;51.880;12.632;2022-10-14T02:45:04;17.22;56.23
68981;SHT35;56033;51.880;12.632;2022-10-14T02:47:30;17.19;56.27
68981;SHT35;56033;51.880;12.632;2022-10-14T02:49:55;17.19;56.32
68981;SHT35;56033;51.880;12.632;2022-10-14T02:52:21;17.19;56.35
68981;SHT35;56033;51.880;12.632;2022-10-14T02:54:46;17.19;56.35
68981;SHT35;56033;51.880;12.632;2022-10-14T02:57:11;17.17;56.33
68981;SHT35;56033;51.880;12.632;2022-10-14T02:59:37;17.15;56.39
68981;SHT35;56033;51.880;12.632;2022-10-14T03:02:04;17.17;56.34
68981;SHT35;56033;51.880;12.632;2022-10-14T03:04:31;17.15;56.39
68981;SHT35;56033;51.880;12.632;2022-10-14T03:06:56;17.15;56.47
68981;SHT35;56033;51.880;12.632;2022-10-14T03:09:21;17.15;56.43
68981;SHT35;56033;51.880;12.632;2022-10-14T03:11:47;17.14;56.39
68981;SHT35;56033;51.880;12.632;2022-10-14T03:14:12;17.15;56.44
68981;SHT35;56033;51.880;12.632;2022-10-14T03:16:38;17.14;56.45
68981;SHT35;56033;51.880;12.632;2022-10-14T03:19:03;17.12;56.47
68981;SHT35;56033;51.880;12.632;2022-10-14T03:21:28;17.10;56.48
68981;SHT35;56033;51.880;12.632;2022-10-14T03:23:54;17.11;56.37
68981;SHT35;56033;51.880;12.632;2022-10-14T03:26:20;17.10;56.42
68981;SHT35;56033;51.880;12.632;2022-10-14T03:28:45;17.11;56.49
68981;SHT35;56033;51.880;12.632;2022-10-14T03:31:11;17.12;56.47
68981;SHT35;56033;51.880;12.632;2022-10-14T03:33:36;17.10;56.50
68981;SHT35;56033;51.880;12.632;2022-10-14T03:36:02;17.11;56.51
68981;SHT35;56033;51.880;12.632;2022-10-14T03:38:28;17.07;56.44
68981;SHT35;56033;51.880;12.632;2022-10-14T03:40:53;17.07;56.52
68981;SHT35;56033;51.880;12.632;2022-10-14T03:43:19;17.07;56.47
68981;SHT35;56033;51.880;12.632;2022-10-14T03:45:44;17.07;56.60
68981;SHT35;56033;51.880;12.632;2022-10-14T03:48:10;17.07;56.45
68981;SHT35;56033;51.880;12.632;2022-10-14T03:50:35;17.07;56.43
68981;SHT35;56033;51.880;12.632;2022-10-14T03:53:00;17.03;56.56
68981;SHT35;56033;51.880;12.632;2022-10-14T03:55:26;17.04;56.51
68981;SHT35;56033;51.880;12.632;2022-10-14T03:57:51;17.06;56.58
68981;SHT35;56033;51.880;12.632;2022-10-14T04:00:17;17.04;56.45
68981;SHT35;56033;51.880;12.632;2022-10-14T04:02:43;17.03;56.51
68981;SHT35;56033;51.880;12.632;2022-10-14T04:05:08;17.06;56.54
68981;SHT35;56033;51.880;12.632;2022-10-14T04:07:34;17.03;56.54
68981;SHT35;56033;51.880;12.632;2022-10-14T04:09:59;17.03;56.58
68981;SHT35;56033;51.880;12.632;2022-10-14T04:12:25;17.00;56.54
68981;SHT35;56033;51.880;12.632;2022-10-14T04:14:50;17.04;56.56
68981;SHT35;56033;51.880;12.632;2022-10-14T04:17:16;17.03;56.53
68981;SHT35;56033;51.880;12.632;2022-10-14T04:19:41;17.01;56.51
68981;SHT35;56033;51.880;12.632;2022-10-14T04:22:06;16.99;56.66
68981;SHT35;56033;51.880;12.632;2022-10-14T04:24:32;17.00;56.61
68981;SHT35;56033;51.880;12.632;2022-10-14T04:26:57;17.00;56.46
68981;SHT35;56033;51.880;12.632;2022-10-14T04:29:23;16.97;56.61
68981;SHT35;56033;51.880;12.632;2022-10-14T04:31:48;16.97;56.50
68981;SHT35;56033;51.880;12.632;2022-10-14T04:34:14;16.97;56.58
68981;SHT35;56033;51.880;12.632;2022-10-14T04:36:39;16.99;56.53
68981;SHT35;56033;51.880;12.632;2022-10-14T04:39:05;16.97;56.55
68981;SHT35;56033;51.880;12.632;2022-10-14T04:41:30;16.95;56.56
68981;SHT35;56033;51.880;12.632;2022-10-14T04:43:56;16.99;56.54
68981;SHT35;56033;51.880;12.632;2022-10-14T04:46:21;16.95;56.55
68981;SHT35;56033;51.880;12.632;2022-10-14T04:48:47;16.97;56.49
68981;SHT35;56033;51.880;12.632;2022-10-14T04:51:13;16.94;56.55
68981;SHT35;56033;51.880;12.632;2022-10-14T04:53:38;16.93;56.52
68981;SHT35;56033;51.880;12.632;2022-10-14T04:56:04;16.93;56.52
68981;SHT35;56033;51.880;12.632;2022-10-14T04:58:30;16.94;56.60
68981;SHT35;56033;51.880;12.632;2022-10-14T05:00:55;16.91;56.58
68981;SHT35;56033;51.880;12.632;2022-10-14T05:03:21;16.93;56.58
68981;SHT35;56033;51.880;12.632;2022-10-14T05:05:46;16.91;56.59
68981;SHT35;56033;51.880;12.632;2022-10-14T05:08:11;16.93;56.57
68981;SHT35;56033;51.880;12.632;2022-10-14T05:10:37;16.91;56.60
68981;SHT35;56033;51.880;12.632;2022-10-14T05:13:03;16.90;56.53
68981;SHT35;56033;51.880;12.632;2022-10-14T05:15:28;16.90;56.56
68981;SHT35;56033;51.880;12.632;2022-10-14T05:17:55;16.90;56.56
68981;SHT35;56033;51.880;12.632;2022-10-14T05:20:20;16.90;56.63
68981;SHT35;56033;51.880;12.632;2022-10-14T05:22:46;16.90;56.65
68981;SHT35;56033;51.880;12.632;2022-10-14T05:25:11;16.87;56.64
68981;SHT35;56033;51.880;12.632;2022-10-14T05:27:36;16.87;56.68
68981;SHT35;56033;51.880;12.632;2022-10-14T05:30:02;16.85;56.63
68981;SHT35;56033;51.880;12.632;2022-10-14T05:32:28;16.85;56.61
68981;SHT35;56033;51.880;12.632;2022-10-14T05:34:53;16.84;56.79
68981;SHT35;56033;51.880;12.632;2022-10-14T05:37:19;16.84;56.53
68981;SHT35;56033;51.880;12.632;2022-10-14T05:39:44;16.85;56.64
68981;SHT35;56033;51.880;12.632;2022-10-14T05:42:10;16.84;56.64
68981;SHT35;56033;51.880;12.632;2022-10-14T05:44:36;16.83;56.65
68981;SHT35;56033;51.880;12.632;2022-10-14T05:47:01;16.84;56.64
68981;SHT35;56033;51.880;12.632;2022-10-14T05:49:26;16.83;56.59
68981;SHT35;56033;51.880;12.632;2022-10-14T05:51:52;16.84;56.58
68981;SHT35;56033;51.880;12.632;2022-10-14T05:54:17;16.83;56.65
68981;SHT35;56033;51.880;12.632;2022-10-14T05:56:43;16.84;56.72
68981;SHT35;56033;51.880;12.632;2022-10-14T05:59:09;16.85;56.75
68981;SHT35;56033;51.880;12.632;2022-10-14T06:01:34;16.87;56.63
68981;SHT35;56033;51.880;12.632;2022-10-14T06:04:01;16.91;56.44
68981;SHT35;56033;51.880;12.632;2022-10-14T06:06:26;16.91;56.42
68981;SHT35;56033;51.880;12.632;2022-10-14T06:08:54;16.90;56.47
68981;SHT35;56033;51.880;12.632;2022-10-14T06:11:19;16.90;56.43
68981;SHT35;56033;51.880;12.632;2022-10-14T06:13:44;17.03;56.28
68981;SHT35;56033;51.880;12.632;2022-10-14T06:16:10;16.99;56.94
68981;SHT35;56033;51.880;12.632;2022-10-14T06:18:36;17.01;56.58
68981;SHT35;56033;51.880;12.632;2022-10-14T06:21:02;16.97;56.70
68981;SHT35;56033;51.880;12.632;2022-10-14T06:23:27;16.97;56.79
68981;SHT35;56033;51.880;12.632;2022-10-14T06:25:54;16.93;56.77
68981;SHT35;56033;51.880;12.632;2022-10-14T06:28:19;16.91;56.67
68981;SHT35;56033;51.880;12.632;2022-10-14T06:30:52;16.91;56.67
68981;SHT35;56033;51.880;12.632;2022-10-14T06:33:18;16.93;56.63
68981;SHT35;56033;51.880;12.632;2022-10-14T06:35:44;16.91;56.66
68981;SHT35;56033;51.880;12.632;2022-10-14T06:38:10;16.93;56.60
68981;SHT35;56033;51.880;12.632;2022-10-14T06:40:36;16.93;56.55
68981;SHT35;56033;51.880;12.632;2022-10-14T06:43:01;16.90;56.69
68981;SHT35;56033;51.880;12.632;2022-10-14T06:45:27;16.81;56.77
68981;SHT35;56033;51.880;12.632;2022-10-14T06:47:52;16.81;56.96
68981;SHT35;56033;51.880;12.632;2022-10-14T06:50:18;16.87;56.88
68981;SHT35;56033;51.880;12.632;2022-10-14T06:52:46;16.83;56.85
68981;SHT35;56033;51.880;12.632;2022-10-14T06:55:12;16.85;56.80
68981;SHT35;56033;51.880;12.632;2022-10-14T06:57:37;16.88;56.75
68981;SHT35;56033;51.880;12.632;2022-10-14T07:00:04;16.90;56.68
68981;SHT35;56033;51.880;12.632;2022-10-14T07:02:30;16.88;56.64
68981;SHT35;56033;51.880;12.632;2022-10-14T07:04:55;16.87;56.71
68981;SHT35;56033;51.880;12.632;2022-10-14T07:07:21;16.85;56.74
68981;SHT35;56033;51.880;12.632;2022-10-14T07:09:46;16.85;56.75
68981;SHT35;56033;51.880;12.632;2022-10-14T07:12:12;16.85;56.74
68981;SHT35;56033;51.880;12.632;2022-10-14T07:14:37;16.87;56.71
68981;SHT35;56033;51.880;12.632;2022-10-14T07:17:02;16.87;56.74
68981;SHT35;56033;51.880;12.632;2022-10-14T07:19:28;16.87;56.74
68981;SHT35;56033;51.880;12.632;2022-10-14T07:21:53;16.88;56.77
68981;SHT35;56033;51.880;12.632;2022-10-14T07:24:19;16.88;56.80
68981;SHT35;56033;51.880;12.632;2022-10-14T07:26:44;16.87;56.76
68981;SHT35;56033;51.880;12.632;2022-10-14T07:29:10;16.87;56.78
68981;SHT35;56033;51.880;12.632;2022-10-14T07:31:36;16.88;56.83
68981;SHT35;56033;51.880;12.632;2022-10-14T07:34:01;16.87;56.77
68981;SHT35;56033;51.880;12.632;2022-10-14T07:36:27;16.88;56.76
68981;SHT35;56033;51.880;12.632;2022-10-14T07:38:52;16.88;56.91
68981;SHT35;56033;51.880;12.632;2022-10-14T07:41:21;16.87;57.04
68981;SHT35;56033;51.880;12.632;2022-10-14T07:43:51;16.93;57.35
68981;SHT35;56033;51.880;12.632;2022-10-14T07:46:20;16.85;57.41
68981;SHT35;56033;51.880;12.632;2022-10-14T07:48:58;16.84;57.31
68981;SHT35;56033;51.880;12.632;2022-10-14T07:51:24;16.84;57.58
68981;SHT35;56033;51.880;12.632;2022-10-14T07:53:50;16.85;57.80
68981;SHT35;56033;51.880;12.632;2022-10-14T07:56:17;16.83;57.64
68981;SHT35;56033;51.880;12.632;2022-10-14T07:58:43;16.83;57.60
68981;SHT35;56033;51.880;12.632;2022-10-14T08:01:08;16.85;57.61
68981;SHT35;56033;51.880;12.632;2022-10-14T08:03:33;16.90;57.37
68981;SHT35;56033;51.880;12.632;2022-10-14T08:06:01;16.90;57.47
68981;SHT35;56033;51.880;12.632;2022-10-14T08:08:27;16.87;57.38
68981;SHT35;56033;51.880;12.632;2022-10-14T08:11:04;16.87;57.31
68981;SHT35;56033;51.880;12.632;2022-10-14T08:13:30;16.88;57.27
68981;SHT35;56033;51.880;12.632;2022-10-14T08:15:55;16.90;57.18
68981;SHT35;56033;51.880;12.632;2022-10-14T08:18:21;16.90;57.49
68981;SHT35;56033;51.880;12.632;2022-10-14T08:20:47;16.88;57.45
68981;SHT35;56033;51.880;12.632;2022-10-14T08:23:12;16.95;57.50
68981;SHT35;56033;51.880;12.632;2022-10-14T08:25:38;16.95;57.66
68981;SHT35;56033;51.880;12.632;2022-10-14T08:28:04;16.97;57.72
68981;SHT35;56033;51.880;12.632;2022-10-14T08:30:31;16.97;57.47
68981;SHT35;56033;51.880;12.632;2022-10-14T08:32:56;17.01;57.36
68981;SHT35;56033;51.880;12.632;2022-10-14T08:35:22;17.03;57.39
68981;SHT35;56033;51.880;12.632;2022-10-14T08:37:55;17.12;57.28
68981;SHT35;56033;51.880;12.632;2022-10-14T08:40:21;17.11;57.38
68981;SHT35;56033;51.880;12.632;2022-10-14T08:45:43;17.04;57.37
68981;SHT35;56033;51.880;12.632;2022-10-14T08:48:15;17.04;57.42
68981;SHT35;56033;51.880;12.632;2022-10-14T08:51:15;17.07;57.28
68981;SHT35;56033;51.880;12.632;2022-10-14T08:53:36;17.07;57.35
68981;SHT35;56033;51.880;12.632;2022-10-14T08:56:04;17.08;57.14
68981;SHT35;56033;51.880;12.632;2022-10-14T08:58:36;17.10;56.94
68981;SHT35;56033;51.880;12.632;2022-10-14T09:03:40;17.11;57.16
68981;SHT35;56033;51.880;12.632;2022-10-14T09:06:23;17.12;57.08
68981;SHT35;56033;51.880;12.632;2022-10-14T09:08:52;17.07;57.19
68981;SHT35;56033;51.880;12.632;2022-10-14T09:11:20;17.07;57.25
68981;SHT35;56033;51.880;12.632;2022-10-14T09:13:58;17.07;57.24
68981;SHT35;56033;51.880;12.632;2022-10-14T09:16:27;17.11;57.08
68981;SHT35;56033;51.880;12.632;2022-10-14T09:18:56;17.18;56.78
68981;SHT35;56033;51.880;12.632;2022-10-14T09:21:41;17.11;57.13
68981;SHT35;56033;51.880;12.632;2022-10-14T09:26:43;17.17;56.78
68981;SHT35;56033;51.880;12.632;2022-10-14T09:29:30;17.28;56.36
68981;SHT35;56033;51.880;12.632;2022-10-14T09:32:00;17.31;56.28
68981;SHT35;56033;51.880;12.632;2022-10-14T09:34:36;17.22;59.13
68981;SHT35;56033;51.880;12.632;2022-10-14T09:39:57;17.25;56.95
68981;SHT35;56033;51.880;12.632;2022-10-14T09:45:14;17.27;56.67
68981;SHT35;56033;51.880;12.632;2022-10-14T09:47:53;17.25;56.85
68981;SHT35;56033;51.880;12.632;2022-10-14T09:50:35;17.22;56.95
68981;SHT35;56033;51.880;12.632;2022-10-14T09:53:17;17.19;57.12
68981;SHT35;56033;51.880;12.632;2022-10-14T09:55:54;17.17;57.20
68981;SHT35;56033;51.880;12.632;2022-10-14T10:00:58;17.18;56.93
68981;SHT35;56033;51.880;12.632;2022-10-14T10:03:33;17.12;57.27
68981;SHT35;56033;51.880;12.632;2022-10-14T10:06:08;17.14;57.35
68981;SHT35;56033;51.880;12.632;2022-10-14T10:08:37;17.10;57.38
68981;SHT35;56033;51.880;12.632;2022-10-14T10:11:04;17.14;57.49
68981;SHT35;56033;51.880;12.632;2022-10-14T10:16:29;17.04;57.52
68981;SHT35;56033;51.880;12.632;2022-10-14T10:18:56;17.14;57.25
68981;SHT35;56033;51.880;12.632;2022-10-14T10:21:26;17.14;57.38
68981;SHT35;56033;51.880;12.632;2022-10-14T10:23:55;17.11;57.24
68981;SHT35;56033;51.880;12.632;2022-10-14T10:26:33;17.19;57.01
68981;SHT35;56033;51.880;12.632;2022-10-14T10:29:00;17.18;57.14
68981;SHT35;56033;51.880;12.632;2022-10-14T10:31:49;17.25;56.93
68981;SHT35;56033;51.880;12.632;2022-10-14T10:37:18;17.39;56.50
68981;SHT35;56033;51.880;12.632;2022-10-14T10:42:51;17.24;56.88
68981;SHT35;56033;51.880;12.632;2022-10-14T10:51:13;17.31;56.90
68981;SHT35;56033;51.880;12.632;2022-10-14T11:02:21;17.27;56.88
68981;SHT35;56033;51.880;12.632;2022-10-14T11:08:06;17.18;56.92
68981;SHT35;56033;51.880;12.632;2022-10-14T11:11:17;17.21;56.99
68981;SHT35;56033;51.880;12.632;2022-10-14T11:16:42;17.21;57.07
68981;SHT35;56033;51.880;12.632;2022-10-14T11:19:32;17.31;58.40
68981;SHT35;56033;51.880;12.632;2022-10-14T11:27:58;17.14;57.40
68981;SHT35;56033;51.880;12.632;2022-10-14T11:39:00;17.24;57.43
68981;SHT35;56033;51.880;12.632;2022-10-14T11:44:40;17.21;57.57
68981;SHT35;56033;51.880;12.632;2022-10-14T11:47:22;17.24;57.48
68981;SHT35;56033;51.880;12.632;2022-10-14T11:52:25;17.34;57.11
68981;SHT35;56033;51.880;12.632;2022-10-14T11:55:09;17.29;57.34
68981;SHT35;56033;51.880;12.632;2022-10-14T11:58:05;17.32;57.26
68981;SHT35;56033;51.880;12.632;2022-10-14T12:00:52;17.25;57.58
68981;SHT35;56033;51.880;12.632;2022-10-14T12:13:41;17.55;57.76
68981;SHT35;56033;51.880;12.632;2022-10-14T12:16:12;17.53;57.16
68981;SHT35;56033;51.880;12.632;2022-10-14T12:18:38;17.49;57.12
68981;SHT35;56033;51.880;12.632;2022-10-14T12:21:29;17.49;57.34
68981;SHT35;56033;51.880;12.632;2022-10-14T12:24:05;17.49;57.40
68981;SHT35;56033;51.880;12.632;2022-10-14T12:28:57;17.53;57.40
68981;SHT35;56033;51.880;12.632;2022-10-14T12:31:37;17.45;57.48
68981;SHT35;56033;51.880;12.632;2022-10-14T12:34:35;17.55;57.18
68981;SHT35;56033;51.880;12.632;2022-10-14T12:39:49;17.49;57.25
68981;SHT35;56033;51.880;12.632;2022-10-14T12:42:15;17.53;57.10
68981;SHT35;56033;51.880;12.632;2022-10-14T12:44:58;17.57;57.09
68981;SHT35;56033;51.880;12.632;2022-10-14T12:47:30;17.61;56.76
68981;SHT35;56033;51.880;12.632;2022-10-14T12:52:44;17.57;57.01
68981;SHT35;56033;51.880;12.632;2022-10-14T12:55:18;17.57;57.13
68981;SHT35;56033;51.880;12.632;2022-10-14T12:57:52;17.66;56.91
68981;SHT35;56033;51.880;12.632;2022-10-14T13:02:49;17.77;56.47
68981;SHT35;56033;51.880;12.632;2022-10-14T13:05:32;17.70;56.88
68981;SHT35;56033;51.880;12.632;2022-10-14T13:24:04;17.80;56.48
68981;SHT35;56033;51.880;12.632;2022-10-14T13:27:00;17.84;56.45
68981;SHT35;56033;51.880;12.632;2022-10-14T13:32:20;17.80;56.57
68981;SHT35;56033;51.880;12.632;2022-10-14T13:37:36;17.79;56.62
68981;SHT35;56033;51.880;12.632;2022-10-14T13:40:21;17.73;56.81
68981;SHT35;56033;51.880;12.632;2022-10-14T13:42:52;17.74;56.70
68981;SHT35;56033;51.880;12.632;2022-10-14T13:45:30;17.86;56.34
68981;SHT35;56033;51.880;12.632;2022-10-14T13:47:56;17.83;56.30
68981;SHT35;56033;51.880;12.632;2022-10-14T13:50:24;17.82;56.38
68981;SHT35;56033;51.880;12.632;2022-10-14T13:52:58;17.86;56.29
68981;SHT35;56033;51.880;12.632;2022-10-14T13:55:25;17.93;56.06
68981;SHT35;56033;51.880;12.632;2022-10-14T13:58:14;17.83;56.49
68981;SHT35;56033;51.880;12.632;2022-10-14T14:03:35;17.80;56.53
68981;SHT35;56033;51.880;12.632;2022-10-14T14:06:10;17.96;56.20
68981;SHT35;56033;51.880;12.632;2022-10-14T14:11:16;17.87;56.40
68981;SHT35;56033;51.880;12.632;2022-10-14T14:13:51;17.83;56.46
68981;SHT35;56033;51.880;12.632;2022-10-14T14:16:23;17.79;56.90
68981;SHT35;56033;51.880;12.632;2022-10-14T14:18:50;17.70;56.92
68981;SHT35;56033;51.880;12.632;2022-10-14T14:21:23;17.74;56.84
68981;SHT35;56033;51.880;12.632;2022-10-14T14:23:56;17.87;56.30
68981;SHT35;56033;51.880;12.632;2022-10-14T14:26:28;17.76;56.85
68981;SHT35;56033;51.880;12.632;2022-10-14T14:28:56;17.76;56.82
68981;SHT35;56033;51.880;12.632;2022-10-14T14:31:25;17.79;56.98
68981;SHT35;56033;51.880;12.632;2022-10-14T14:33:56;17.76;57.09
68981;SHT35;56033;51.880;12.632;2022-10-14T14:36:24;17.74;57.06
68981;SHT35;56033;51.880;12.632;2022-10-14T14:38:56;17.86;56.66
68981;SHT35;56033;51.880;12.632;2022-10-14T14:41:31;17.82;56.74
68981;SHT35;56033;51.880;12.632;2022-10-14T14:44:02;17.83;56.72
68981;SHT35;56033;51.880;12.632;2022-10-14T14:46:34;17.82;56.68
68981;SHT35;56033;51.880;12.632;2022-10-14T14:49:01;17.87;56.63
68981;SHT35;56033;51.880;12.632;2022-10-14T14:51:32;17.79;56.70
68981;SHT35;56033;51.880;12.632;2022-10-14T14:53:58;17.87;56.51
68981;SHT35;56033;51.880;12.632;2022-10-14T14:56:28;17.84;56.60
68981;SHT35;56033;51.880;12.632;2022-10-14T14:58:56;17.73;57.00
68981;SHT35;56033;51.880;12.632;2022-10-14T15:01:26;17.82;56.86
68981;SHT35;56033;51.880;12.632;2022-10-14T15:04:02;17.82;56.78
68981;SHT35;56033;51.880;12.632;2022-10-14T15:06:28;17.79;56.85
68981;SHT35;56033;51.880;12.632;2022-10-14T15:08:55;17.69;57.24
68981;SHT35;56033;51.880;12.632;2022-10-14T15:11:22;17.73;57.13
68981;SHT35;56033;51.880;12.632;2022-10-14T15:13:53;17.79;57.00
68981;SHT35;56033;51.880;12.632;2022-10-14T15:16:39;17.79;57.31
68981;SHT35;56033;51.880;12.632;2022-10-14T15:21:44;17.70;57.71
68981;SHT35;56033;51.880;12.632;2022-10-14T15:24:14;17.66;57.84
68981;SHT35;56033;51.880;12.632;2022-10-14T15:26:40;17.70;57.66
68981;SHT35;56033;51.880;12.632;2022-10-14T15:29:16;17.66;58.03
68981;SHT35;56033;51.880;12.632;2022-10-14T15:31:45;17.67;57.95
68981;SHT35;56033;51.880;12.632;2022-10-14T15:34:19;17.66;58.04
68981;SHT35;56033;51.880;12.632;2022-10-14T15:36:48;17.66;58.10
68981;SHT35;56033;51.880;12.632;2022-10-14T15:39:13;17.73;58.14
68981;SHT35;56033;51.880;12.632;2022-10-14T15:41:42;17.70;58.03
68981;SHT35;56033;51.880;12.632;2022-10-14T15:44:07;17.72;58.23
68981;SHT35;56033;51.880;12.632;2022-10-14T15:46:36;17.70;58.31
68981;SHT35;56033;51.880;12.632;2022-10-14T15:49:41;17.74;57.80
68981;SHT35;56033;51.880;12.632;2022-10-14T15:52:12;17.84;57.54
68981;SHT35;56033;51.880;12.632;2022-10-14T15:54:38;17.82;57.40
68981;SHT35;56033;51.880;12.632;2022-10-14T15:57:03;17.82;57.41
68981;SHT35;56033;51.880;12.632;2022-10-14T15:59:30;17.79;57.75
68981;SHT35;56033;51.880;12.632;2022-10-14T16:01:55;17.74;58.10
68981;SHT35;56033;51.880;12.632;2022-10-14T16:04:23;17.79;57.89
68981;SHT35;56033;51.880;12.632;2022-10-14T16:06:53;17.91;57.62
68981;SHT35;56033;51.880;12.632;2022-10-14T16:09:19;17.97;57.36
68981;SHT35;56033;51.880;12.632;2022-10-14T16:11:45;17.98;57.24
68981;SHT35;56033;51.880;12.632;2022-10-14T16:14:12;18.00;57.48
68981;SHT35;56033;51.880;12.632;2022-10-14T16:16:43;18.12;57.53
68981;SHT35;56033;51.880;12.632;2022-10-14T16:19:10;18.21;57.20
68981;SHT35;56033;51.880;12.632;2022-10-14T16:21:36;18.35;56.97
68981;SHT35;56033;51.880;12.632;2022-10-14T16:24:03;18.46;56.73
68981;SHT35;56033;51.880;12.632;2022-10-14T16:26:29;18.51;56.52
68981;SHT35;56033;51.880;12.632;2022-10-14T16:28:55;18.60;56.49
68981;SHT35;56033;51.880;12.632;2022-10-14T16:31:21;18.69;56.37
68981;SHT35;56033;51.880;12.632;2022-10-14T16:33:50;18.70;56.39
68981;SHT35;56033;51.880;12.632;2022-10-14T16:36:18;18.84;56.23
68981;SHT35;56033;51.880;12.632;2022-10-14T16:38:44;18.91;56.14
68981;SHT35;56033;51.880;12.632;2022-10-14T16:41:10;18.70;57.93
68981;SHT35;56033;51.880;12.632;2022-10-14T16:43:36;18.49;58.55
68981;SHT35;56033;51.880;12.632;2022-10-14T16:46:02;18.42;58.49
68981;SHT35;56033;51.880;12.632;2022-10-14T16:48:28;18.57;57.96
68981;SHT35;56033;51.880;12.632;2022-10-14T16:50:54;18.69;57.61
68981;SHT35;56033;51.880;12.632;2022-10-14T16:53:20;18.74;57.54
68981;SHT35;56033;51.880;12.632;2022-10-14T16:56:18;18.81;57.47
68981;SHT35;56033;51.880;12.632;2022-10-14T16:59:03;18.97;56.99
68981;SHT35;56033;51.880;12.632;2022-10-14T17:01:29;19.11;56.67
68981;SHT35;56033;51.880;12.632;2022-10-14T17:03:55;19.15;56.50
68981;SHT35;56033;51.880;12.632;2022-10-14T17:06:22;19.18;56.44
68981;SHT35;56033;51.880;12.632;2022-10-14T17:08:48;19.25;56.23
68981;SHT35;56033;51.880;12.632;2022-10-14T17:11:13;19.14;56.83
68981;SHT35;56033;51.880;12.632;2022-10-14T17:13:39;19.18;56.63
68981;SHT35;56033;51.880;12.632;2022-10-14T17:16:05;19.14;57.00
68981;SHT35;56033;51.880;12.632;2022-10-14T17:18:32;19.29;56.88
68981;SHT35;56033;51.880;12.632;2022-10-14T17:21:06;19.34;56.61
68981;SHT35;56033;51.880;12.632;2022-10-14T17:23:33;19.42;56.52
68981;SHT35;56033;51.880;12.632;2022-10-14T17:26:00;19.45;56.52
68981;SHT35;56033;51.880;12.632;2022-10-14T17:28:26;19.44;56.47
68981;SHT35;56033;51.880;12.632;2022-10-14T17:30:52;19.53;56.27
68981;SHT35;56033;51.880;12.632;2022-10-14T17:33:17;19.55;56.33
68981;SHT35;56033;51.880;12.632;2022-10-14T17:35:43;19.56;56.35
68981;SHT35;56033;51.880;12.632;2022-10-14T17:38:09;19.62;56.39
68981;SHT35;56033;51.880;12.632;2022-10-14T17:40:34;19.61;56.35
68981;SHT35;56033;51.880;12.632;2022-10-14T17:42:59;19.63;56.52
68981;SHT35;56033;51.880;12.632;2022-10-14T17:45:26;19.65;56.59
68981;SHT35;56033;51.880;12.632;2022-10-14T17:47:54;19.73;56.55
68981;SHT35;56033;51.880;12.632;2022-10-14T17:50:20;19.70;56.60
68981;SHT35;56033;51.880;12.632;2022-10-14T17:52:47;19.73;56.58